sensor_id;sensor_type;location;lat;lon;timestamp;P1;durP1;ratioP1;P2;durP2;ratioP2
59786;SDS011;45672;51.612;5.536;2024-01-15T00:02:17;7.40;;;6.55;;
59786;SDS011;45672;51.612;5.536;2024-01-15T00:04:42;5.82;;;5.32;;
59786;SDS011;45672;51.612;5.536;2024-01-15T00:07:08;6.55;;;5.45;;
59786;SDS011;45672;51.612;5.536;2024-01-15T00:09:34;6.05;;;4.80;;
59786;SDS011;45672;51.612;5.536;2024-01-15T00:12:00;7.30;;;4.45;;
59786;SDS011;45672;51.612;5.536;2024-01-15T00:14:26;7.25;;;4.22;;
59786;SDS011;45672;51.612;5.536;2024-01-15T00:16:51;11.68;;;4.75;;
59786;SDS011;45672;51.612;5.536;2024-01-15T00:19:20;5.03;;;4.53;;
59786;SDS011;45672;51.612;5.536;2024-01-15T00:21:47;6.55;;;5.03;;
59786;SDS011;45672;51.612;5.536;2024-01-15T00:24:12;4.82;;;4.38;;
59786;SDS011;45672;51.612;5.536;2024-01-15T00:26:38;7.80;;;4.80;;
59786;SDS011;45672;51.612;5.536;2024-01-15T00:29:03;5.20;;;4.60;;
59786;SDS011;45672;51.612;5.536;2024-01-15T00:31:29;6.75;;;4.50;;
59786;SDS011;45672;51.612;5.536;2024-01-15T00:33:55;5.20;;;4.70;;
59786;SDS011;45672;51.612;5.536;2024-01-15T00:36:20;5.53;;;4.47;;
59786;SDS011;45672;51.612;5.536;2024-01-15T00:38:46;4.72;;;4.05;;
59786;SDS011;45672;51.612;5.536;2024-01-15T00:41:12;5.28;;;4.88;;
59786;SDS011;45672;51.612;5.536;2024-01-15T00:43:38;6.80;;;4.47;;
59786;SDS011;45672;51.612;5.536;2024-01-15T00:46:03;4.28;;;3.97;;
59786;SDS011;45672;51.612;5.536;2024-01-15T00:48:28;5.05;;;3.92;;
59786;SDS011;45672;51.612;5.536;2024-01-15T00:50:54;6.43;;;3.72;;
59786;SDS011;45672;51.612;5.536;2024-01-15T00:53:19;9.65;;;4.47;;
59786;SDS011;45672;51.612;5.536;2024-01-15T00:55:47;4.57;;;4.13;;
59786;SDS011;45672;51.612;5.536;2024-01-15T00:58:12;8.38;;;3.80;;
59786;SDS011;45672;51.612;5.536;2024-01-15T01:00:38;7.28;;;3.63;;
59786;SDS011;45672;51.612;5.536;2024-01-15T01:03:03;5.13;;;4.05;;
59786;SDS011;45672;51.612;5.536;2024-01-15T01:05:28;5.25;;;4.18;;
59786;SDS011;45672;51.612;5.536;2024-01-15T01:07:54;5.25;;;4.60;;
59786;SDS011;45672;51.612;5.536;2024-01-15T01:10:19;7.40;;;4.70;;
59786;SDS011;45672;51.612;5.536;2024-01-15T01:12:44;7.93;;;5.60;;
59786;SDS011;45672;51.612;5.536;2024-01-15T01:15:10;8.27;;;5.78;;
59786;SDS011;45672;51.612;5.536;2024-01-15T01:17:35;12.98;;;5.80;;
59786;SDS011;45672;51.612;5.536;2024-01-15T01:20:01;9.05;;;5.68;;
59786;SDS011;45672;51.612;5.536;2024-01-15T01:22:29;11.23;;;5.70;;
59786;SDS011;45672;51.612;5.536;2024-01-15T01:24:54;8.23;;;6.13;;
59786;SDS011;45672;51.612;5.536;2024-01-15T01:27:20;7.85;;;5.38;;
59786;SDS011;45672;51.612;5.536;2024-01-15T01:29:45;9.50;;;4.90;;
59786;SDS011;45672;51.612;5.536;2024-01-15T01:32:10;10.27;;;4.85;;
59786;SDS011;45672;51.612;5.536;2024-01-15T01:34:39;9.30;;;4.88;;
59786;SDS011;45672;51.612;5.536;2024-01-15T01:37:07;6.50;;;3.90;;
59786;SDS011;45672;51.612;5.536;2024-01-15T01:39:32;4.75;;;3.60;;
59786;SDS011;45672;51.612;5.536;2024-01-15T01:41:58;10.25;;;3.25;;
59786;SDS011;45672;51.612;5.536;2024-01-15T01:44:23;9.75;;;3.20;;
59786;SDS011;45672;51.612;5.536;2024-01-15T01:46:48;8.73;;;3.10;;
59786;SDS011;45672;51.612;5.536;2024-01-15T01:49:14;9.00;;;2.58;;
59786;SDS011;45672;51.612;5.536;2024-01-15T01:51:39;5.28;;;2.28;;
59786;SDS011;45672;51.612;5.536;2024-01-15T01:54:04;5.40;;;2.25;;
59786;SDS011;45672;51.612;5.536;2024-01-15T01:56:32;5.97;;;2.22;;
59786;SDS011;45672;51.612;5.536;2024-01-15T01:58:59;7.13;;;2.55;;
59786;SDS011;45672;51.612;5.536;2024-01-15T02:01:24;9.52;;;2.45;;
59786;SDS011;45672;51.612;5.536;2024-01-15T02:03:50;4.65;;;2.25;;
59786;SDS011;45672;51.612;5.536;2024-01-15T02:06:15;4.25;;;2.00;;
59786;SDS011;45672;51.612;5.536;2024-01-15T02:08:42;4.38;;;2.50;;
59786;SDS011;45672;51.612;5.536;2024-01-15T02:11:08;4.47;;;2.10;;
59786;SDS011;45672;51.612;5.536;2024-01-15T02:13:33;3.60;;;1.98;;
59786;SDS011;45672;51.612;5.536;2024-01-15T02:15:59;8.82;;;2.40;;
59786;SDS011;45672;51.612;5.536;2024-01-15T02:18:24;5.63;;;2.50;;
59786;SDS011;45672;51.612;5.536;2024-01-15T02:20:49;10.52;;;2.42;;
59786;SDS011;45672;51.612;5.536;2024-01-15T02:23:15;4.80;;;2.33;;
59786;SDS011;45672;51.612;5.536;2024-01-15T02:25:41;6.03;;;2.20;;
59786;SDS011;45672;51.612;5.536;2024-01-15T02:28:09;3.60;;;2.22;;
59786;SDS011;45672;51.612;5.536;2024-01-15T02:30:39;7.90;;;2.45;;
59786;SDS011;45672;51.612;5.536;2024-01-15T02:33:06;4.90;;;2.38;;
59786;SDS011;45672;51.612;5.536;2024-01-15T02:35:34;6.57;;;2.50;;
59786;SDS011;45672;51.612;5.536;2024-01-15T02:38:03;4.88;;;2.30;;
59786;SDS011;45672;51.612;5.536;2024-01-15T02:40:30;4.57;;;2.20;;
59786;SDS011;45672;51.612;5.536;2024-01-15T02:42:55;7.18;;;3.17;;
59786;SDS011;45672;51.612;5.536;2024-01-15T02:45:21;7.13;;;2.40;;
59786;SDS011;45672;51.612;5.536;2024-01-15T02:47:47;4.55;;;2.30;;
59786;SDS011;45672;51.612;5.536;2024-01-15T02:50:12;13.68;;;2.40;;
59786;SDS011;45672;51.612;5.536;2024-01-15T02:52:38;8.68;;;2.40;;
59786;SDS011;45672;51.612;5.536;2024-01-15T02:55:03;6.38;;;2.20;;
59786;SDS011;45672;51.612;5.536;2024-01-15T02:57:29;7.47;;;2.03;;
59786;SDS011;45672;51.612;5.536;2024-01-15T02:59:54;6.57;;;2.13;;
59786;SDS011;45672;51.612;5.536;2024-01-15T03:02:19;3.72;;;1.83;;
59786;SDS011;45672;51.612;5.536;2024-01-15T03:04:45;7.93;;;2.22;;
59786;SDS011;45672;51.612;5.536;2024-01-15T03:07:10;8.27;;;1.90;;
59786;SDS011;45672;51.612;5.536;2024-01-15T03:09:36;7.43;;;2.00;;
59786;SDS011;45672;51.612;5.536;2024-01-15T03:12:01;7.18;;;2.00;;
59786;SDS011;45672;51.612;5.536;2024-01-15T03:14:26;7.03;;;2.10;;
59786;SDS011;45672;51.612;5.536;2024-01-15T03:16:52;10.05;;;2.38;;
59786;SDS011;45672;51.612;5.536;2024-01-15T03:19:18;10.02;;;2.80;;
59786;SDS011;45672;51.612;5.536;2024-01-15T03:21:43;11.35;;;2.03;;
59786;SDS011;45672;51.612;5.536;2024-01-15T03:24:09;5.47;;;2.03;;
59786;SDS011;45672;51.612;5.536;2024-01-15T03:26:34;10.50;;;1.90;;
59786;SDS011;45672;51.612;5.536;2024-01-15T03:28:59;5.60;;;1.98;;
59786;SDS011;45672;51.612;5.536;2024-01-15T03:31:24;5.85;;;1.90;;
59786;SDS011;45672;51.612;5.536;2024-01-15T03:33:50;7.82;;;1.50;;
59786;SDS011;45672;51.612;5.536;2024-01-15T03:36:15;9.05;;;2.22;;
59786;SDS011;45672;51.612;5.536;2024-01-15T03:38:40;8.65;;;1.70;;
59786;SDS011;45672;51.612;5.536;2024-01-15T03:41:07;9.95;;;1.80;;
59786;SDS011;45672;51.612;5.536;2024-01-15T03:43:32;10.57;;;1.90;;
59786;SDS011;45672;51.612;5.536;2024-01-15T03:45:58;5.03;;;2.10;;
59786;SDS011;45672;51.612;5.536;2024-01-15T03:48:23;7.10;;;1.98;;
59786;SDS011;45672;51.612;5.536;2024-01-15T03:50:48;5.30;;;2.15;;
59786;SDS011;45672;51.612;5.536;2024-01-15T03:53:14;7.70;;;2.15;;
59786;SDS011;45672;51.612;5.536;2024-01-15T03:55:39;6.82;;;2.05;;
59786;SDS011;45672;51.612;5.536;2024-01-15T03:58:04;13.82;;;2.45;;
59786;SDS011;45672;51.612;5.536;2024-01-15T04:00:30;4.53;;;2.00;;
59786;SDS011;45672;51.612;5.536;2024-01-15T04:02:55;10.35;;;2.28;;
59786;SDS011;45672;51.612;5.536;2024-01-15T04:05:20;7.28;;;2.28;;
59786;SDS011;45672;51.612;5.536;2024-01-15T04:07:46;5.78;;;1.65;;
59786;SDS011;45672;51.612;5.536;2024-01-15T04:10:11;11.45;;;3.05;;
59786;SDS011;45672;51.612;5.536;2024-01-15T04:12:36;6.60;;;2.33;;
59786;SDS011;45672;51.612;5.536;2024-01-15T04:15:01;8.70;;;2.20;;
59786;SDS011;45672;51.612;5.536;2024-01-15T04:17:27;8.65;;;2.80;;
59786;SDS011;45672;51.612;5.536;2024-01-15T04:19:53;8.98;;;2.53;;
59786;SDS011;45672;51.612;5.536;2024-01-15T04:22:18;7.30;;;2.03;;
59786;SDS011;45672;51.612;5.536;2024-01-15T04:24:43;9.20;;;2.10;;
59786;SDS011;45672;51.612;5.536;2024-01-15T04:27:09;9.02;;;2.00;;
59786;SDS011;45672;51.612;5.536;2024-01-15T04:29:34;8.73;;;2.55;;
59786;SDS011;45672;51.612;5.536;2024-01-15T04:31:59;9.25;;;2.20;;
59786;SDS011;45672;51.612;5.536;2024-01-15T04:34:24;16.38;;;2.67;;
59786;SDS011;45672;51.612;5.536;2024-01-15T04:36:50;6.72;;;2.40;;
59786;SDS011;45672;51.612;5.536;2024-01-15T04:39:15;16.13;;;3.03;;
59786;SDS011;45672;51.612;5.536;2024-01-15T04:41:40;5.93;;;2.20;;
59786;SDS011;45672;51.612;5.536;2024-01-15T04:44:06;4.35;;;2.22;;
59786;SDS011;45672;51.612;5.536;2024-01-15T04:46:31;11.65;;;2.97;;
59786;SDS011;45672;51.612;5.536;2024-01-15T04:48:56;13.75;;;2.55;;
59786;SDS011;45672;51.612;5.536;2024-01-15T04:51:21;9.73;;;2.80;;
59786;SDS011;45672;51.612;5.536;2024-01-15T04:53:47;3.00;;;2.10;;
59786;SDS011;45672;51.612;5.536;2024-01-15T04:56:12;8.40;;;2.47;;
59786;SDS011;45672;51.612;5.536;2024-01-15T04:58:37;8.70;;;2.17;;
59786;SDS011;45672;51.612;5.536;2024-01-15T05:01:03;8.95;;;2.88;;
59786;SDS011;45672;51.612;5.536;2024-01-15T05:03:28;3.60;;;2.20;;
59786;SDS011;45672;51.612;5.536;2024-01-15T05:05:54;6.70;;;2.00;;
59786;SDS011;45672;51.612;5.536;2024-01-15T05:08:20;6.40;;;2.10;;
59786;SDS011;45672;51.612;5.536;2024-01-15T05:10:45;5.43;;;2.20;;
59786;SDS011;45672;51.612;5.536;2024-01-15T05:13:10;2.80;;;1.48;;
59786;SDS011;45672;51.612;5.536;2024-01-15T05:15:36;4.25;;;1.65;;
59786;SDS011;45672;51.612;5.536;2024-01-15T05:18:02;7.03;;;2.10;;
59786;SDS011;45672;51.612;5.536;2024-01-15T05:20:27;7.68;;;3.22;;
59786;SDS011;45672;51.612;5.536;2024-01-15T05:22:52;10.93;;;3.75;;
59786;SDS011;45672;51.612;5.536;2024-01-15T05:25:18;6.82;;;3.72;;
59786;SDS011;45672;51.612;5.536;2024-01-15T05:27:43;11.73;;;4.38;;
59786;SDS011;45672;51.612;5.536;2024-01-15T05:30:08;9.55;;;4.30;;
59786;SDS011;45672;51.612;5.536;2024-01-15T05:32:34;4.97;;;2.70;;
59786;SDS011;45672;51.612;5.536;2024-01-15T05:34:59;10.52;;;3.13;;
59786;SDS011;45672;51.612;5.536;2024-01-15T05:37:24;4.50;;;2.22;;
59786;SDS011;45672;51.612;5.536;2024-01-15T05:39:50;6.53;;;2.05;;
59786;SDS011;45672;51.612;5.536;2024-01-15T05:42:15;2.25;;;1.52;;
59786;SDS011;45672;51.612;5.536;2024-01-15T05:44:40;6.53;;;2.03;;
59786;SDS011;45672;51.612;5.536;2024-01-15T05:47:05;4.60;;;1.92;;
59786;SDS011;45672;51.612;5.536;2024-01-15T05:49:31;2.70;;;2.00;;
59786;SDS011;45672;51.612;5.536;2024-01-15T05:51:56;6.75;;;2.47;;
59786;SDS011;45672;51.612;5.536;2024-01-15T05:54:21;2.67;;;1.95;;
59786;SDS011;45672;51.612;5.536;2024-01-15T05:56:47;2.22;;;2.03;;
59786;SDS011;45672;51.612;5.536;2024-01-15T05:59:12;5.45;;;2.53;;
59786;SDS011;45672;51.612;5.536;2024-01-15T06:01:37;3.63;;;2.47;;
59786;SDS011;45672;51.612;5.536;2024-01-15T06:04:03;4.22;;;2.58;;
59786;SDS011;45672;51.612;5.536;2024-01-15T06:06:28;6.15;;;2.83;;
59786;SDS011;45672;51.612;5.536;2024-01-15T06:08:53;3.13;;;2.20;;
59786;SDS011;45672;51.612;5.536;2024-01-15T06:11:19;4.35;;;2.50;;
59786;SDS011;45672;51.612;5.536;2024-01-15T06:13:44;5.88;;;2.50;;
59786;SDS011;45672;51.612;5.536;2024-01-15T06:16:13;2.95;;;2.28;;
59786;SDS011;45672;51.612;5.536;2024-01-15T06:18:40;4.32;;;2.53;;
59786;SDS011;45672;51.612;5.536;2024-01-15T06:21:05;5.28;;;2.50;;
59786;SDS011;45672;51.612;5.536;2024-01-15T06:23:30;8.23;;;2.53;;
59786;SDS011;45672;51.612;5.536;2024-01-15T06:25:56;4.85;;;2.50;;
59786;SDS011;45672;51.612;5.536;2024-01-15T06:28:21;5.28;;;3.05;;
59786;SDS011;45672;51.612;5.536;2024-01-15T06:30:46;4.20;;;2.25;;
59786;SDS011;45672;51.612;5.536;2024-01-15T06:33:11;6.20;;;2.90;;
59786;SDS011;45672;51.612;5.536;2024-01-15T06:35:37;3.92;;;2.88;;
59786;SDS011;45672;51.612;5.536;2024-01-15T06:38:02;7.25;;;2.67;;
59786;SDS011;45672;51.612;5.536;2024-01-15T06:40:27;4.03;;;2.90;;
59786;SDS011;45672;51.612;5.536;2024-01-15T06:42:53;7.22;;;2.85;;
59786;SDS011;45672;51.612;5.536;2024-01-15T06:45:18;5.18;;;2.85;;
59786;SDS011;45672;51.612;5.536;2024-01-15T06:47:43;5.18;;;3.40;;
59786;SDS011;45672;51.612;5.536;2024-01-15T06:50:08;5.88;;;3.35;;
59786;SDS011;45672;51.612;5.536;2024-01-15T06:52:34;5.55;;;4.00;;
59786;SDS011;45672;51.612;5.536;2024-01-15T06:54:59;5.03;;;3.95;;
59786;SDS011;45672;51.612;5.536;2024-01-15T06:57:24;10.70;;;4.47;;
59786;SDS011;45672;51.612;5.536;2024-01-15T06:59:50;7.75;;;4.38;;
59786;SDS011;45672;51.612;5.536;2024-01-15T07:02:15;6.82;;;4.90;;
59786;SDS011;45672;51.612;5.536;2024-01-15T07:04:41;7.28;;;4.07;;
59786;SDS011;45672;51.612;5.536;2024-01-15T07:07:06;9.63;;;4.00;;
59786;SDS011;45672;51.612;5.536;2024-01-15T07:09:31;4.75;;;4.20;;
59786;SDS011;45672;51.612;5.536;2024-01-15T07:11:56;7.82;;;4.50;;
59786;SDS011;45672;51.612;5.536;2024-01-15T07:14:23;8.13;;;4.20;;
59786;SDS011;45672;51.612;5.536;2024-01-15T07:16:48;6.85;;;3.95;;
59786;SDS011;45672;51.612;5.536;2024-01-15T07:19:13;5.75;;;4.38;;
59786;SDS011;45672;51.612;5.536;2024-01-15T07:21:39;5.20;;;4.70;;
59786;SDS011;45672;51.612;5.536;2024-01-15T07:24:05;7.57;;;4.93;;
59786;SDS011;45672;51.612;5.536;2024-01-15T07:26:30;6.15;;;5.03;;
59786;SDS011;45672;51.612;5.536;2024-01-15T07:28:56;5.55;;;4.88;;
59786;SDS011;45672;51.612;5.536;2024-01-15T07:31:21;39.22;;;18.27;;
59786;SDS011;45672;51.612;5.536;2024-01-15T07:33:47;10.68;;;4.57;;
59786;SDS011;45672;51.612;5.536;2024-01-15T07:36:12;6.22;;;4.78;;
59786;SDS011;45672;51.612;5.536;2024-01-15T07:38:37;5.45;;;4.95;;
59786;SDS011;45672;51.612;5.536;2024-01-15T07:41:03;4.90;;;4.50;;
59786;SDS011;45672;51.612;5.536;2024-01-15T07:43:29;5.95;;;5.10;;
59786;SDS011;45672;51.612;5.536;2024-01-15T07:45:54;4.90;;;4.38;;
59786;SDS011;45672;51.612;5.536;2024-01-15T07:48:19;9.38;;;6.38;;
59786;SDS011;45672;51.612;5.536;2024-01-15T07:50:45;9.98;;;4.95;;
59786;SDS011;45672;51.612;5.536;2024-01-15T07:53:10;9.00;;;5.50;;
59786;SDS011;45672;51.612;5.536;2024-01-15T07:55:36;6.60;;;5.00;;
59786;SDS011;45672;51.612;5.536;2024-01-15T07:58:01;6.88;;;5.55;;
59786;SDS011;45672;51.612;5.536;2024-01-15T08:00:27;8.07;;;6.03;;
59786;SDS011;45672;51.612;5.536;2024-01-15T08:02:52;12.02;;;7.07;;
59786;SDS011;45672;51.612;5.536;2024-01-15T08:05:18;6.60;;;5.90;;
59786;SDS011;45672;51.612;5.536;2024-01-15T08:07:44;6.88;;;5.88;;
59786;SDS011;45672;51.612;5.536;2024-01-15T08:10:09;7.95;;;6.75;;
59786;SDS011;45672;51.612;5.536;2024-01-15T08:12:34;6.90;;;6.15;;
59786;SDS011;45672;51.612;5.536;2024-01-15T08:15:00;7.40;;;6.22;;
59786;SDS011;45672;51.612;5.536;2024-01-15T08:17:25;7.07;;;5.93;;
59786;SDS011;45672;51.612;5.536;2024-01-15T08:19:54;7.15;;;5.57;;
59786;SDS011;45672;51.612;5.536;2024-01-15T08:22:19;5.97;;;5.32;;
59786;SDS011;45672;51.612;5.536;2024-01-15T08:24:45;6.10;;;5.60;;
59786;SDS011;45672;51.612;5.536;2024-01-15T08:27:10;6.50;;;5.80;;
59786;SDS011;45672;51.612;5.536;2024-01-15T08:29:36;18.45;;;10.18;;
59786;SDS011;45672;51.612;5.536;2024-01-15T08:32:01;11.45;;;7.72;;
59786;SDS011;45672;51.612;5.536;2024-01-15T08:34:26;9.48;;;7.57;;
59786;SDS011;45672;51.612;5.536;2024-01-15T08:36:52;7.53;;;5.70;;
59786;SDS011;45672;51.612;5.536;2024-01-15T08:39:17;7.55;;;5.47;;
59786;SDS011;45672;51.612;5.536;2024-01-15T08:41:44;7.05;;;6.35;;
59786;SDS011;45672;51.612;5.536;2024-01-15T08:44:09;12.25;;;7.68;;
59786;SDS011;45672;51.612;5.536;2024-01-15T08:46:35;8.20;;;7.00;;
59786;SDS011;45672;51.612;5.536;2024-01-15T08:49:00;8.30;;;6.35;;
59786;SDS011;45672;51.612;5.536;2024-01-15T08:51:25;11.68;;;6.97;;
59786;SDS011;45672;51.612;5.536;2024-01-15T08:53:51;11.55;;;7.63;;
59786;SDS011;45672;51.612;5.536;2024-01-15T08:56:16;13.05;;;8.50;;
59786;SDS011;45672;51.612;5.536;2024-01-15T08:58:42;10.45;;;8.05;;
59786;SDS011;45672;51.612;5.536;2024-01-15T09:01:07;9.27;;;8.30;;
59786;SDS011;45672;51.612;5.536;2024-01-15T09:03:32;8.52;;;7.35;;
59786;SDS011;45672;51.612;5.536;2024-01-15T09:05:58;7.57;;;6.80;;
59786;SDS011;45672;51.612;5.536;2024-01-15T09:08:24;8.85;;;7.35;;
59786;SDS011;45672;51.612;5.536;2024-01-15T09:10:49;10.75;;;7.38;;
59786;SDS011;45672;51.612;5.536;2024-01-15T09:13:15;9.80;;;6.68;;
59786;SDS011;45672;51.612;5.536;2024-01-15T09:15:41;8.00;;;7.00;;
59786;SDS011;45672;51.612;5.536;2024-01-15T09:18:07;8.40;;;7.60;;
59786;SDS011;45672;51.612;5.536;2024-01-15T09:20:33;10.60;;;8.60;;
59786;SDS011;45672;51.612;5.536;2024-01-15T09:22:58;9.73;;;8.70;;
59786;SDS011;45672;51.612;5.536;2024-01-15T09:25:23;8.32;;;7.53;;
59786;SDS011;45672;51.612;5.536;2024-01-15T09:27:49;7.70;;;7.00;;
59786;SDS011;45672;51.612;5.536;2024-01-15T09:30:14;9.32;;;7.18;;
59786;SDS011;45672;51.612;5.536;2024-01-15T09:32:40;7.55;;;6.18;;
59786;SDS011;45672;51.612;5.536;2024-01-15T09:35:05;11.15;;;6.40;;
59786;SDS011;45672;51.612;5.536;2024-01-15T09:37:31;7.63;;;5.78;;
59786;SDS011;45672;51.612;5.536;2024-01-15T09:39:56;10.43;;;5.70;;
59786;SDS011;45672;51.612;5.536;2024-01-15T09:42:23;5.57;;;5.00;;
59786;SDS011;45672;51.612;5.536;2024-01-15T09:44:50;6.88;;;4.25;;
59786;SDS011;45672;51.612;5.536;2024-01-15T09:47:15;5.22;;;4.10;;
59786;SDS011;45672;51.612;5.536;2024-01-15T09:49:42;6.40;;;3.50;;
59786;SDS011;45672;51.612;5.536;2024-01-15T09:52:07;5.43;;;3.15;;
59786;SDS011;45672;51.612;5.536;2024-01-15T09:54:33;4.97;;;2.58;;
59786;SDS011;45672;51.612;5.536;2024-01-15T09:56:59;4.53;;;2.08;;
59786;SDS011;45672;51.612;5.536;2024-01-15T09:59:25;2.40;;;1.85;;
59786;SDS011;45672;51.612;5.536;2024-01-15T10:01:53;3.58;;;1.67;;
59786;SDS011;45672;51.612;5.536;2024-01-15T10:04:19;2.75;;;1.65;;
59786;SDS011;45672;51.612;5.536;2024-01-15T10:06:45;4.88;;;2.03;;
59786;SDS011;45672;51.612;5.536;2024-01-15T10:09:14;4.22;;;1.60;;
59786;SDS011;45672;51.612;5.536;2024-01-15T10:11:41;9.63;;;2.08;;
59786;SDS011;45672;51.612;5.536;2024-01-15T10:14:07;4.40;;;2.00;;
59786;SDS011;45672;51.612;5.536;2024-01-15T10:16:32;2.08;;;1.30;;
59786;SDS011;45672;51.612;5.536;2024-01-15T10:18:58;6.05;;;2.05;;
59786;SDS011;45672;51.612;5.536;2024-01-15T10:21:23;4.57;;;2.17;;
59786;SDS011;45672;51.612;5.536;2024-01-15T10:23:51;4.97;;;2.30;;
59786;SDS011;45672;51.612;5.536;2024-01-15T10:26:16;5.03;;;1.90;;
59786;SDS011;45672;51.612;5.536;2024-01-15T10:28:42;6.28;;;2.67;;
59786;SDS011;45672;51.612;5.536;2024-01-15T10:31:07;5.80;;;2.40;;
59786;SDS011;45672;51.612;5.536;2024-01-15T10:33:33;4.80;;;1.92;;
59786;SDS011;45672;51.612;5.536;2024-01-15T10:35:59;5.03;;;2.38;;
59786;SDS011;45672;51.612;5.536;2024-01-15T10:38:25;13.48;;;3.45;;
59786;SDS011;45672;51.612;5.536;2024-01-15T10:40:51;6.82;;;3.00;;
59786;SDS011;45672;51.612;5.536;2024-01-15T10:43:18;6.18;;;2.90;;
59786;SDS011;45672;51.612;5.536;2024-01-15T10:45:44;6.68;;;3.63;;
59786;SDS011;45672;51.612;5.536;2024-01-15T10:48:10;5.38;;;2.45;;
59786;SDS011;45672;51.612;5.536;2024-01-15T10:50:35;3.55;;;2.22;;
59786;SDS011;45672;51.612;5.536;2024-01-15T10:53:01;5.22;;;2.35;;
59786;SDS011;45672;51.612;5.536;2024-01-15T10:55:27;5.45;;;2.05;;
59786;SDS011;45672;51.612;5.536;2024-01-15T10:57:54;5.30;;;2.45;;
59786;SDS011;45672;51.612;5.536;2024-01-15T11:00:21;6.93;;;2.92;;
59786;SDS011;45672;51.612;5.536;2024-01-15T11:02:46;3.22;;;2.80;;
59786;SDS011;45672;51.612;5.536;2024-01-15T11:05:12;8.65;;;3.40;;
59786;SDS011;45672;51.612;5.536;2024-01-15T11:07:39;5.20;;;2.95;;
59786;SDS011;45672;51.612;5.536;2024-01-15T11:10:04;10.98;;;4.20;;
59786;SDS011;45672;51.612;5.536;2024-01-15T11:12:30;7.47;;;4.20;;
59786;SDS011;45672;51.612;5.536;2024-01-15T11:15:03;10.55;;;4.57;;
59786;SDS011;45672;51.612;5.536;2024-01-15T11:20:26;8.63;;;4.22;;
59786;SDS011;45672;51.612;5.536;2024-01-15T11:22:51;9.50;;;5.25;;
59786;SDS011;45672;51.612;5.536;2024-01-15T11:25:19;5.93;;;3.78;;
59786;SDS011;45672;51.612;5.536;2024-01-15T11:27:49;7.50;;;3.53;;
59786;SDS011;45672;51.612;5.536;2024-01-15T11:30:16;7.93;;;3.22;;
59786;SDS011;45672;51.612;5.536;2024-01-15T11:32:43;6.43;;;3.17;;
59786;SDS011;45672;51.612;5.536;2024-01-15T11:35:11;4.35;;;2.50;;
59786;SDS011;45672;51.612;5.536;2024-01-15T11:40:20;5.55;;;3.30;;
59786;SDS011;45672;51.612;5.536;2024-01-15T11:42:48;6.53;;;3.10;;
59786;SDS011;45672;51.612;5.536;2024-01-15T11:45:21;2.97;;;2.65;;
59786;SDS011;45672;51.612;5.536;2024-01-15T11:50:34;6.05;;;2.45;;
59786;SDS011;45672;51.612;5.536;2024-01-15T11:53:05;3.05;;;2.10;;
59786;SDS011;45672;51.612;5.536;2024-01-15T11:55:57;9.60;;;4.22;;
59786;SDS011;45672;51.612;5.536;2024-01-15T11:58:24;4.10;;;2.40;;
59786;SDS011;45672;51.612;5.536;2024-01-15T12:00:50;7.30;;;3.45;;
59786;SDS011;45672;51.612;5.536;2024-01-15T12:03:17;10.75;;;6.85;;
59786;SDS011;45672;51.612;5.536;2024-01-15T12:05:45;5.40;;;4.28;;
59786;SDS011;45672;51.612;5.536;2024-01-15T12:08:11;6.78;;;4.75;;
59786;SDS011;45672;51.612;5.536;2024-01-15T12:10:40;5.55;;;3.85;;
59786;SDS011;45672;51.612;5.536;2024-01-15T12:13:12;15.32;;;8.57;;
59786;SDS011;45672;51.612;5.536;2024-01-15T12:15:39;8.52;;;4.72;;
59786;SDS011;45672;51.612;5.536;2024-01-15T12:18:06;10.15;;;6.10;;
59786;SDS011;45672;51.612;5.536;2024-01-15T12:20:33;17.92;;;8.63;;
59786;SDS011;45672;51.612;5.536;2024-01-15T12:22:59;10.68;;;5.93;;
59786;SDS011;45672;51.612;5.536;2024-01-15T12:25:24;17.10;;;8.75;;
59786;SDS011;45672;51.612;5.536;2024-01-15T12:27:52;12.75;;;7.25;;
59786;SDS011;45672;51.612;5.536;2024-01-15T12:30:18;25.08;;;15.75;;
59786;SDS011;45672;51.612;5.536;2024-01-15T12:32:43;20.23;;;11.77;;
59786;SDS011;45672;51.612;5.536;2024-01-15T12:35:12;18.20;;;11.20;;
59786;SDS011;45672;51.612;5.536;2024-01-15T12:37:39;13.73;;;7.78;;
59786;SDS011;45672;51.612;5.536;2024-01-15T12:40:05;16.40;;;8.55;;
59786;SDS011;45672;51.612;5.536;2024-01-15T12:42:35;48.47;;;20.35;;
59786;SDS011;45672;51.612;5.536;2024-01-15T12:45:09;7.38;;;5.90;;
59786;SDS011;45672;51.612;5.536;2024-01-15T12:47:36;11.13;;;6.63;;
59786;SDS011;45672;51.612;5.536;2024-01-15T12:50:02;10.40;;;8.32;;
59786;SDS011;45672;51.612;5.536;2024-01-15T12:52:27;5.85;;;5.10;;
59786;SDS011;45672;51.612;5.536;2024-01-15T12:54:54;4.97;;;4.13;;
59786;SDS011;45672;51.612;5.536;2024-01-15T12:57:19;22.73;;;13.32;;
59786;SDS011;45672;51.612;5.536;2024-01-15T12:59:44;12.73;;;8.18;;
59786;SDS011;45672;51.612;5.536;2024-01-15T13:02:13;5.28;;;4.78;;
59786;SDS011;45672;51.612;5.536;2024-01-15T13:04:39;11.82;;;8.13;;
59786;SDS011;45672;51.612;5.536;2024-01-15T13:07:08;8.60;;;5.90;;
59786;SDS011;45672;51.612;5.536;2024-01-15T13:09:33;16.95;;;14.50;;
59786;SDS011;45672;51.612;5.536;2024-01-15T13:12:00;15.05;;;9.02;;
59786;SDS011;45672;51.612;5.536;2024-01-15T13:14:26;5.10;;;4.47;;
59786;SDS011;45672;51.612;5.536;2024-01-15T13:16:51;4.70;;;4.30;;
59786;SDS011;45672;51.612;5.536;2024-01-15T13:19:18;6.65;;;6.00;;
59786;SDS011;45672;51.612;5.536;2024-01-15T13:21:44;7.65;;;6.47;;
59786;SDS011;45672;51.612;5.536;2024-01-15T13:24:09;7.38;;;6.68;;
59786;SDS011;45672;51.612;5.536;2024-01-15T13:26:35;9.40;;;7.95;;
59786;SDS011;45672;51.612;5.536;2024-01-15T13:29:03;8.57;;;7.60;;
59786;SDS011;45672;51.612;5.536;2024-01-15T13:31:32;7.20;;;5.97;;
59786;SDS011;45672;51.612;5.536;2024-01-15T13:33:58;13.52;;;11.23;;
59786;SDS011;45672;51.612;5.536;2024-01-15T13:36:24;10.07;;;7.60;;
59786;SDS011;45672;51.612;5.536;2024-01-15T13:38:52;20.67;;;13.40;;
59786;SDS011;45672;51.612;5.536;2024-01-15T13:41:21;12.35;;;8.57;;
59786;SDS011;45672;51.612;5.536;2024-01-15T13:43:50;42.78;;;23.35;;
59786;SDS011;45672;51.612;5.536;2024-01-15T13:46:17;8.07;;;7.10;;
59786;SDS011;45672;51.612;5.536;2024-01-15T13:48:43;16.77;;;10.88;;
59786;SDS011;45672;51.612;5.536;2024-01-15T13:51:09;7.97;;;5.97;;
59786;SDS011;45672;51.612;5.536;2024-01-15T13:53:34;16.17;;;10.90;;
59786;SDS011;45672;51.612;5.536;2024-01-15T13:55:59;8.00;;;6.15;;
59786;SDS011;45672;51.612;5.536;2024-01-15T13:58:25;18.27;;;11.25;;
59786;SDS011;45672;51.612;5.536;2024-01-15T14:00:51;14.40;;;8.82;;
59786;SDS011;45672;51.612;5.536;2024-01-15T14:03:17;17.15;;;9.68;;
59786;SDS011;45672;51.612;5.536;2024-01-15T14:05:42;7.82;;;5.25;;
59786;SDS011;45672;51.612;5.536;2024-01-15T14:08:08;22.83;;;14.05;;
59786;SDS011;45672;51.612;5.536;2024-01-15T14:10:33;50.63;;;26.55;;
59786;SDS011;45672;51.612;5.536;2024-01-15T14:12:59;16.08;;;9.27;;
59786;SDS011;45672;51.612;5.536;2024-01-15T14:15:24;20.55;;;10.45;;
59786;SDS011;45672;51.612;5.536;2024-01-15T14:17:49;34.35;;;16.13;;
59786;SDS011;45672;51.612;5.536;2024-01-15T14:20:15;12.27;;;7.38;;
59786;SDS011;45672;51.612;5.536;2024-01-15T14:22:40;27.77;;;12.25;;
59786;SDS011;45672;51.612;5.536;2024-01-15T14:25:06;48.25;;;20.10;;
59786;SDS011;45672;51.612;5.536;2024-01-15T14:27:32;27.70;;;14.35;;
59786;SDS011;45672;51.612;5.536;2024-01-15T14:29:57;7.35;;;5.13;;
59786;SDS011;45672;51.612;5.536;2024-01-15T14:32:23;8.60;;;4.93;;
59786;SDS011;45672;51.612;5.536;2024-01-15T14:34:48;20.85;;;12.25;;
59786;SDS011;45672;51.612;5.536;2024-01-15T14:37:14;10.88;;;4.97;;
59786;SDS011;45672;51.612;5.536;2024-01-15T14:39:39;4.93;;;4.18;;
59786;SDS011;45672;51.612;5.536;2024-01-15T14:42:04;11.00;;;5.78;;
59786;SDS011;45672;51.612;5.536;2024-01-15T14:44:30;12.95;;;7.88;;